Time;durP1;ratioP1;P1;durP2;ratioP2;P2;SDS_P1;SDS_P2;PMS_P1;PMS_P2;Temp;Humidity;BMP_temperature;BMP_pressure;BME280_temperature;BME280_humidity;BME280_pressure;Samples;Min_cycle;Max_cycle;Signal;HPM_P1;HPM_P2
2023/08/18 00:00:54;;;;;;;1.27;1.17;;;21.40;99.90;;;;;;5041112;28;20025;-80
2023/08/18 00:03:20;;;;;;;0.63;0.63;;;21.80;99.90;;;;;;5058876;28;20533;-75
2023/08/18 00:05:46;;;;;;;1.55;1.00;;;21.60;99.90;;;;;;5041045;28;20037;-84
2023/08/18 00:08:12;;;;;;;0.65;0.65;;;21.60;99.90;;;;;;5059020;28;20028;-77
2023/08/18 00:10:38;;;;;;;0.93;0.93;;;22.10;99.90;;;;;;5058276;28;20039;-76
2023/08/18 00:13:04;;;;;;;1.10;0.95;;;21.70;99.90;;;;;;5059336;28;20693;-77
2023/08/18 00:15:30;;;;;;;0.10;0.10;;;21.80;99.90;;;;;;5059452;28;20654;-80
2023/08/18 00:17:56;;;;;;;0.68;0.68;;;21.60;99.90;;;;;;5059324;28;20025;-81
2023/08/18 00:20:22;;;;;;;0.30;0.30;;;21.50;99.90;;;;;;5040714;28;20032;-85
2023/08/18 00:22:48;;;;;;;0.25;0.25;;;;;;;;;;5040792;28;20036;-79
2023/08/18 00:25:14;;;;;;;1.55;1.27;;;21.00;99.90;;;;;;5058569;28;20427;-78
2023/08/18 00:27:40;;;;;;;2.53;2.42;;;21.20;99.90;;;;;;5059598;28;20119;-76
2023/08/18 00:30:07;;;;;;;0.40;0.40;;;21.00;99.90;;;;;;5041344;28;20024;-79
2023/08/18 00:32:34;;;;;;;0.10;0.10;;;20.90;99.90;;;;;;5059268;28;20382;-83
2023/08/18 00:35:00;;;;;;;0.40;0.40;;;20.80;99.90;;;;;;5059328;28;20021;-77
2023/08/18 00:37:26;;;;;;;1.35;1.25;;;20.90;99.90;;;;;;5041400;28;20035;-78
2023/08/18 00:39:52;;;;;;;4.13;1.77;;;20.80;99.90;;;;;;5059525;28;20024;-77
2023/08/18 00:42:18;;;;;;;0.57;0.57;;;21.00;99.90;;;;;;5040858;28;20468;-78
2023/08/18 00:44:44;;;;;;;0.20;0.20;;;21.00;99.90;;;;;;5058506;28;20319;-78
2023/08/18 00:47:11;;;;;;;0.05;0.05;;;19.80;99.90;;;;;;5058767;28;20730;-77
2023/08/18 00:49:38;;;;;;;0.10;0.10;;;21.40;99.90;;;;;;5058326;28;20027;-76
2023/08/18 00:52:05;;;;;;;0.77;0.77;;;21.30;99.90;;;;;;5059651;28;20095;-78
2023/08/18 00:54:31;;;;;;;0.13;0.13;;;21.10;99.90;;;;;;5060096;28;20029;-78
2023/08/18 00:56:57;;;;;;;0.93;0.93;;;21.10;99.90;;;;;;5057829;28;20024;-77
2023/08/18 00:59:24;;;;;;;1.45;1.10;;;21.10;99.90;;;;;;5062390;28;20020;-77
2023/08/18 01:01:51;;;;;;;3.35;3.22;;;20.90;99.90;;;;;;5062152;28;20043;-78
2023/08/18 01:04:18;;;;;;;3.95;3.70;;;21.10;99.90;;;;;;5063432;28;20025;-78
2023/08/18 01:06:45;;;;;;;0.10;0.10;;;20.80;99.90;;;;;;5062784;28;20021;-78
2023/08/18 01:09:11;;;;;;;0.80;0.80;;;20.90;99.90;;;;;;5044166;28;20371;-78
2023/08/18 01:12:08;;;;;;;0.10;0.10;;;20.70;99.90;;;;;;5061939;28;20090;-78
2023/08/18 01:15:12;;;;;;;4.78;1.63;;;20.90;99.90;;;;;;4999157;28;20026;-78
2023/08/18 01:17:50;;;;;;;0.80;0.80;;;20.80;99.90;;;;;;4983303;28;20068;-79
2023/08/18 01:20:18;;;;;;;1.00;1.00;;;20.80;99.90;;;;;;5000254;28;20238;-77
2023/08/18 01:23:01;;;;;;;2.63;1.17;;;21.00;99.90;;;;;;4999555;28;20053;-78
2023/08/18 01:25:27;;;;;;;0.30;0.30;;;21.10;99.90;;;;;;4999202;28;20148;-77
2023/08/18 01:27:55;;;;;;;0.05;0.05;;;21.90;99.90;;;;;;5001884;28;20025;-78
2023/08/18 01:30:27;;;;;;;1.55;1.45;;;21.00;99.90;;;;;;4999183;28;20026;-78
2023/08/18 01:32:59;;;;;;;0.30;0.30;;;20.90;99.90;;;;;;4999175;28;20037;-78
2023/08/18 01:35:29;;;;;;;2.92;1.15;;;21.00;99.90;;;;;;4983135;28;20731;-77
2023/08/18 01:37:57;;;;;;;0.40;0.40;;;21.40;99.90;;;;;;4999237;28;20045;-78
2023/08/18 01:40:28;;;;;;;0.70;0.70;;;20.40;99.90;;;;;;4998948;28;20062;-83
2023/08/18 01:42:55;;;;;;;0.63;0.63;;;21.40;99.90;;;;;;4998640;28;20596;-79
2023/08/18 01:45:21;;;;;;;1.98;1.80;;;21.50;99.90;;;;;;4999455;28;20688;-79
2023/08/18 01:47:47;;;;;;;9.60;2.28;;;21.30;99.90;;;;;;4999473;28;20744;-82
2023/08/18 01:50:13;;;;;;;0.10;0.10;;;21.30;99.90;;;;;;4998934;28;20121;-78
2023/08/18 01:52:39;;;;;;;0.30;0.30;;;21.30;99.90;;;;;;5055268;28;20526;-78
2023/08/18 01:55:05;;;;;;;0.57;0.55;;;21.10;99.90;;;;;;5061690;28;20082;-78
2023/08/18 01:57:32;;;;;;;0.20;0.20;;;24.00;99.90;;;;;;5042841;28;20028;-78
2023/08/18 01:59:58;;;;;;;1.83;1.58;;;20.60;99.90;;;;;;5043593;28;20020;-80
2023/08/18 02:02:24;;;;;;;1.05;1.02;;;20.90;99.90;;;;;;5039952;28;20045;-78
2023/08/18 02:04:49;;;;;;;0.10;0.10;;;20.50;99.90;;;;;;5041603;28;20666;-78
2023/08/18 02:07:15;;;;;;;0.20;0.20;;;20.30;99.90;;;;;;5042495;28;20159;-81
2023/08/18 02:09:42;;;;;;;0.20;0.20;;;20.20;99.90;;;;;;5039679;28;20104;-87
2023/08/18 02:12:08;;;;;;;1.00;1.00;;;20.40;99.90;;;;;;5041460;28;20092;-79
2023/08/18 02:14:34;;;;;;;0.65;0.65;;;20.60;99.90;;;;;;5040590;28;20016;-78
2023/08/18 02:17:03;;;;;;;0.98;0.95;;;20.80;99.90;;;;;;5041446;28;20125;-78
2023/08/18 02:19:29;;;;;;;0.20;0.20;;;20.80;99.90;;;;;;5042005;28;20089;-79
2023/08/18 02:21:55;;;;;;;1.55;1.45;;;21.00;99.90;;;;;;5041524;28;20397;-78
2023/08/18 02:24:21;;;;;;;8.30;5.78;;;21.00;99.90;;;;;;5040329;28;20047;-77
2023/08/18 02:26:47;;;;;;;1.52;1.42;;;21.00;99.90;;;;;;5040075;28;20017;-78
2023/08/18 02:29:13;;;;;;;0.95;0.90;;;20.80;99.90;;;;;;5038901;28;20104;-77
2023/08/18 02:31:39;;;;;;;1.85;1.75;;;20.00;99.90;;;;;;5040470;28;20479;-78
2023/08/18 02:34:05;;;;;;;0.47;0.47;;;21.10;99.90;;;;;;5038944;28;20036;-78
2023/08/18 02:36:31;;;;;;;0.93;0.90;;;19.40;99.90;;;;;;5041068;28;20029;-79
2023/08/18 02:38:57;;;;;;;4.07;2.38;;;21.50;99.90;;;;;;5038994;28;20046;-78
2023/08/18 02:41:26;;;;;;;0.10;0.10;;;21.10;99.90;;;;;;5040817;28;20052;-84
2023/08/18 02:43:52;;;;;;;0.95;0.95;;;21.20;99.90;;;;;;5039995;28;20025;-77
2023/08/18 02:46:17;;;;;;;0.63;0.63;;;21.20;99.90;;;;;;5041256;28;20497;-83
2023/08/18 02:48:43;;;;;;;0.35;0.35;;;21.10;99.90;;;;;;5040995;28;20024;-78
2023/08/18 02:51:10;;;;;;;0.68;0.68;;;21.20;99.90;;;;;;5041466;28;20122;-82
2023/08/18 02:53:39;;;;;;;1.13;1.10;;;21.60;99.90;;;;;;5039602;28;20021;-77
2023/08/18 02:56:05;;;;;;;1.52;1.42;;;21.30;99.90;;;;;;5040214;28;20031;-80
2023/08/18 02:58:33;;;;;;;0.40;0.40;;;21.10;99.90;;;;;;5039995;28;20023;-78
2023/08/18 03:01:04;;;;;;;0.52;0.52;;;20.80;99.90;;;;;;5042998;28;20565;-79
2023/08/18 03:03:30;;;;;;;2.38;1.90;;;21.10;99.90;;;;;;5059824;28;20036;-78
2023/08/18 03:06:04;;;;;;;1.00;0.88;;;21.10;99.90;;;;;;5060662;28;20029;-78
2023/08/18 03:08:30;;;;;;;0.95;0.95;;;21.20;99.90;;;;;;5060242;28;20608;-80
2023/08/18 03:10:59;;;;;;;1.08;0.98;;;21.10;99.90;;;;;;5059784;28;20232;-78
2023/08/18 03:13:26;;;;;;;0.10;0.10;;;20.90;99.90;;;;;;5059496;28;20039;-77
2023/08/18 03:15:52;;;;;;;0.13;0.13;;;18.10;99.90;;;;;;5058962;28;20042;-78
2023/08/18 03:18:19;;;;;;;0.55;0.55;;;21.20;99.90;;;;;;5060015;28;20030;-79
2023/08/18 03:20:47;;;;;;;0.17;0.17;;;21.30;99.90;;;;;;5060223;28;20093;-82
2023/08/18 03:23:18;;;;;;;0.10;0.10;;;21.20;99.90;;;;;;5059357;28;20355;-78
2023/08/18 03:25:44;;;;;;;1.27;0.68;;;21.30;99.90;;;;;;5059469;28;20089;-78
2023/08/18 03:28:11;;;;;;;0.70;0.68;;;21.40;99.90;;;;;;5060338;28;20065;-77
2023/08/18 03:30:38;;;;;;;0.63;0.63;;;21.30;99.90;;;;;;5059406;28;20028;-78
2023/08/18 03:33:04;;;;;;;1.98;0.73;;;21.50;99.90;;;;;;5059081;28;20502;-86
2023/08/18 03:35:32;;;;;;;1.30;1.20;;;;;;;;;;5041347;28;20032;-86
2023/08/18 03:38:04;;;;;;;0.10;0.10;;;21.40;99.90;;;;;;5059345;28;20159;-79
2023/08/18 03:40:30;;;;;;;0.63;0.63;;;;;;;;;;5059844;28;20035;-78
2023/08/18 03:42:56;;;;;;;0.30;0.30;;;21.30;99.90;;;;;;5059874;28;20043;-78
2023/08/18 03:45:23;;;;;;;0.50;0.50;;;21.30;99.90;;;;;;5059415;28;20550;-78
2023/08/18 03:47:50;;;;;;;1.17;1.10;;;21.80;99.90;;;;;;5040968;28;20506;-78
2023/08/18 03:50:16;;;;;;;3.05;2.85;;;21.40;99.90;;;;;;5059248;28;20708;-79
2023/08/18 03:52:42;;;;;;;0.57;0.57;;;21.70;99.90;;;;;;5059232;28;20088;-78
2023/08/18 03:55:09;;;;;;;1.58;1.48;;;21.40;99.90;;;;;;5058770;28;20242;-77
2023/08/18 03:57:35;;;;;;;0.32;0.32;;;21.30;99.90;;;;;;5059059;28;20013;-78
2023/08/18 04:00:01;;;;;;;1.00;1.00;;;21.30;99.90;;;;;;5042995;28;20032;-83
2023/08/18 04:02:27;;;;;;;1.58;1.48;;;21.40;99.90;;;;;;5059360;28;20044;-81
2023/08/18 04:04:54;;;;;;;0.32;0.32;;;21.30;99.90;;;;;;5040810;28;20094;-78
2023/08/18 04:07:20;;;;;;;0.20;0.20;;;20.00;99.90;;;;;;5059629;28;20052;-78
2023/08/18 04:09:47;;;;;;;0.50;0.50;;;;;;;;;;5058679;28;20037;-78
2023/08/18 04:12:13;;;;;;;0.57;0.55;;;21.40;99.90;;;;;;5059384;28;20517;-78
2023/08/18 04:14:39;;;;;;;1.38;1.27;;;21.40;99.90;;;;;;5059356;28;20033;-78
2023/08/18 04:17:05;;;;;;;3.85;3.33;;;21.30;99.90;;;;;;5058163;28;20048;-78
2023/08/18 04:19:31;;;;;;;0.28;0.28;;;19.50;99.90;;;;;;5041218;28;20051;-81
2023/08/18 04:21:57;;;;;;;0.75;0.75;;;21.30;99.90;;;;;;5060014;28;20024;-78
2023/08/18 04:24:23;;;;;;;2.60;1.30;;;21.50;99.90;;;;;;5040161;28;20032;-77
2023/08/18 04:26:49;;;;;;;0.30;0.30;;;21.70;99.90;;;;;;5059122;28;20030;-77
2023/08/18 04:29:15;;;;;;;0.10;0.10;;;21.80;99.90;;;;;;5041146;28;20052;-76
2023/08/18 04:31:41;;;;;;;0.20;0.20;;;21.50;99.90;;;;;;5059113;28;20383;-78
2023/08/18 04:34:07;;;;;;;0.57;0.57;;;22.40;99.90;;;;;;5043559;28;20020;-78
2023/08/18 04:36:33;;;;;;;0.68;0.68;;;;;;;;;;5063225;28;20024;-81
2023/08/18 04:38:59;;;;;;;0.73;0.73;;;21.50;99.90;;;;;;5063208;28;20406;-77
2023/08/18 04:41:25;;;;;;;0.20;0.20;;;22.10;99.90;;;;;;5062007;28;20050;-78
2023/08/18 04:43:52;;;;;;;0.10;0.10;;;21.60;99.90;;;;;;5044689;28;20402;-77
2023/08/18 04:46:18;;;;;;;0.85;0.85;;;21.60;99.90;;;;;;5062199;28;20017;-78
2023/08/18 04:48:44;;;;;;;0.30;0.30;;;21.60;99.90;;;;;;5062617;28;20029;-78
2023/08/18 04:51:10;;;;;;;0.30;0.30;;;21.60;99.90;;;;;;5062216;28;20536;-81
2023/08/18 04:53:37;;;;;;;0.20;0.20;;;;;;;;;;5062155;28;20225;-79
2023/08/18 04:56:03;;;;;;;3.80;2.47;;;21.70;99.90;;;;;;5061915;28;20048;-77
2023/08/18 04:58:29;;;;;;;0.35;0.35;;;21.70;99.90;;;;;;5063033;28;20536;-77
2023/08/18 05:00:57;;;;;;;0.10;0.10;;;21.70;99.90;;;;;;5061939;28;20025;-77
2023/08/18 05:03:26;;;;;;;0.55;0.55;;;21.60;99.90;;;;;;5062073;28;20517;-77
2023/08/18 05:06:02;;;;;;;0.68;0.68;;;22.20;99.90;;;;;;5062316;28;20033;-81
2023/08/18 05:08:29;;;;;;;1.02;1.02;;;21.70;99.90;;;;;;5061400;28;20445;-76
2023/08/18 05:10:57;;;;;;;0.57;0.57;;;20.90;99.90;;;;;;5043826;28;20032;-77
2023/08/18 05:13:24;;;;;;;0.40;0.40;;;21.80;99.90;;;;;;5062664;28;20041;-76
2023/08/18 05:15:50;;;;;;;0.75;0.75;;;22.20;99.90;;;;;;5043187;28;20043;-77
2023/08/18 05:18:16;;;;;;;2.13;1.65;;;22.10;99.90;;;;;;5063282;28;20586;-77
2023/08/18 05:20:42;;;;;;;0.80;0.80;;;21.70;99.90;;;;;;5045330;28;20025;-79
2023/08/18 05:23:09;;;;;;;0.40;0.40;;;21.70;99.90;;;;;;5061937;28;20635;-79
2023/08/18 05:25:35;;;;;;;0.55;0.55;;;18.70;99.90;;;;;;5061148;28;20025;-80
2023/08/18 05:28:02;;;;;;;0.80;0.80;;;21.80;99.90;;;;;;5061228;28;20570;-78
2023/08/18 05:30:28;;;;;;;0.30;0.30;;;21.90;99.90;;;;;;5062387;28;20017;-79
2023/08/18 05:32:54;;;;;;;0.90;0.90;;;21.90;99.90;;;;;;5061238;28;20540;-77
2023/08/18 05:35:20;;;;;;;0.10;0.10;;;21.90;99.90;;;;;;5061408;28;20024;-80
2023/08/18 05:37:46;;;;;;;0.57;0.57;;;22.00;99.90;;;;;;5062693;28;20453;-78
2023/08/18 05:40:12;;;;;;;0.40;0.40;;;21.90;99.90;;;;;;5062662;28;20024;-80
2023/08/18 05:42:38;;;;;;;0.63;0.63;;;22.00;99.90;;;;;;5062235;28;20478;-77
2023/08/18 05:45:05;;;;;;;0.40;0.40;;;22.40;99.90;;;;;;5061821;28;20108;-78
2023/08/18 05:47:31;;;;;;;0.25;0.25;;;22.00;99.90;;;;;;5043431;28;20031;-78
2023/08/18 05:49:57;;;;;;;0.57;0.57;;;22.00;99.90;;;;;;5060948;28;20021;-78
2023/08/18 05:52:23;;;;;;;0.50;0.50;;;22.40;99.90;;;;;;5060902;28;20036;-82
2023/08/18 05:54:49;;;;;;;2.20;2.10;;;21.90;99.90;;;;;;5060689;28;20043;-79
2023/08/18 05:57:15;;;;;;;0.65;0.65;;;22.00;99.90;;;;;;5060469;28;20225;-78
2023/08/18 05:59:41;;;;;;;0.43;0.43;;;22.10;99.90;;;;;;5042679;28;20024;-83
2023/08/18 06:02:07;;;;;;;1.88;1.77;;;22.20;99.90;;;;;;5061357;28;20549;-80
2023/08/18 06:04:33;;;;;;;0.10;0.10;;;22.40;99.90;;;;;;5061035;28;20121;-79
2023/08/18 06:07:00;;;;;;;6.85;3.67;;;22.50;99.90;;;;;;5042907;28;20056;-77
2023/08/18 06:09:26;;;;;;;0.15;0.15;;;19.00;99.90;;;;;;5042766;28;20111;-76
2023/08/18 06:11:52;;;;;;;0.40;0.40;;;22.30;99.90;;;;;;5060989;28;20381;-77
2023/08/18 06:14:18;;;;;;;2.38;1.75;;;22.30;99.90;;;;;;5059845;28;20097;-80
2023/08/18 06:16:44;;;;;;;0.68;0.55;;;22.50;99.90;;;;;;5060031;28;20677;-78
2023/08/18 06:19:10;;;;;;;1.23;1.17;;;22.60;99.90;;;;;;5042463;28;20021;-82
2023/08/18 06:21:36;;;;;;;1.02;1.00;;;;;;;;;;5061096;28;20244;-82
2023/08/18 06:24:06;;;;;;;1.25;1.17;;;22.70;99.90;;;;;;5060428;28;20048;-78
2023/08/18 06:26:32;;;;;;;4.60;4.30;;;22.70;99.90;;;;;;5060122;28;20376;-79
2023/08/18 06:28:57;;;;;;;0.20;0.20;;;23.20;99.90;;;;;;5060522;28;20770;-80
2023/08/18 06:31:23;;;;;;;1.65;1.30;;;23.10;99.90;;;;;;5060577;28;20028;-79
2023/08/18 06:33:50;;;;;;;0.10;0.10;;;22.90;99.90;;;;;;5060231;28;20477;-78
2023/08/18 06:36:15;;;;;;;0.20;0.20;;;23.10;99.90;;;;;;5059456;28;20204;-82
2023/08/18 06:38:41;;;;;;;8.25;1.88;;;23.20;99.90;;;;;;5058704;28;20085;-77
2023/08/18 06:41:08;;;;;;;3.10;1.65;;;23.00;99.90;;;;;;5059235;28;20374;-79
2023/08/18 06:43:34;;;;;;;0.10;0.10;;;23.20;99.90;;;;;;5072893;28;20032;-79
2023/08/18 06:46:00;;;;;;;0.52;0.52;;;23.20;99.90;;;;;;5079890;28;20034;-87
2023/08/18 06:48:26;;;;;;;1.35;1.25;;;23.60;99.90;;;;;;5061635;28;20645;-80
2023/08/18 06:50:52;;;;;;;1.67;1.58;;;23.70;99.90;;;;;;5079218;28;20043;-78
2023/08/18 06:53:18;;;;;;;0.30;0.30;;;23.60;99.90;;;;;;5079779;28;20012;-78
2023/08/18 06:55:44;;;;;;;0.55;0.55;;;23.20;99.90;;;;;;5063670;28;20021;-86
2023/08/18 06:58:12;;;;;;;0.22;0.22;;;23.50;99.90;;;;;;5062668;28;20016;-80
2023/08/18 07:00:38;;;;;;;2.30;1.98;;;23.60;99.90;;;;;;5080235;28;20409;-78
2023/08/18 07:03:04;;;;;;;0.30;0.30;;;23.70;99.90;;;;;;5078905;28;20528;-80
2023/08/18 07:05:30;;;;;;;1.55;1.45;;;;;;;;;;5061640;28;20084;-77
2023/08/18 07:07:56;;;;;;;0.28;0.28;;;23.80;99.90;;;;;;5061282;28;20161;-78
2023/08/18 07:10:22;;;;;;;1.60;1.50;;;24.10;99.90;;;;;;5078807;28;20024;-78
2023/08/18 07:12:48;;;;;;;0.93;0.90;;;24.20;99.90;;;;;;5079181;28;20658;-87
2023/08/18 07:15:15;;;;;;;0.50;0.50;;;23.90;99.90;;;;;;5079294;28;20048;-80
2023/08/18 07:17:41;;;;;;;3.97;3.45;;;24.30;99.90;;;;;;5079957;28;20031;-87
2023/08/18 07:20:10;;;;;;;0.73;0.73;;;23.80;99.90;;;;;;5080119;28;20028;-77
2023/08/18 07:22:36;;;;;;;1.05;0.98;;;23.80;99.90;;;;;;5061501;28;20024;-77
2023/08/18 07:25:04;;;;;;;2.33;2.17;;;24.20;99.90;;;;;;5078929;28;20027;-82
2023/08/18 07:27:30;;;;;;;0.20;0.20;;;23.70;99.90;;;;;;5079069;28;20108;-79
2023/08/18 07:29:56;;;;;;;0.57;0.52;;;23.60;99.90;;;;;;5060321;28;20481;-82
2023/08/18 07:32:24;;;;;;;0.35;0.35;;;23.60;99.90;;;;;;5078680;28;20043;-81
2023/08/18 07:34:50;;;;;;;2.70;2.42;;;;;;;;;;5079653;28;20024;-78
2023/08/18 07:37:16;;;;;;;2.75;2.63;;;23.60;99.90;;;;;;5078260;28;20040;-79
2023/08/18 07:39:42;;;;;;;0.00;0.00;;;23.70;99.90;;;;;;5078106;28;20080;-78
2023/08/18 07:42:08;;;;;;;0.98;0.98;;;24.00;99.90;;;;;;5078453;28;20023;-79
2023/08/18 07:44:34;;;;;;;1.05;0.77;;;22.70;99.90;;;;;;5081193;28;20747;-78
2023/08/18 07:47:06;;;;;;;2.40;1.75;;;24.00;99.90;;;;;;5079323;28;20031;-79
2023/08/18 07:49:32;;;;;;;0.10;0.10;;;23.90;99.90;;;;;;5079872;28;20020;-81
2023/08/18 07:51:58;;;;;;;1.67;1.20;;;24.50;99.90;;;;;;5078634;28;20031;-79
2023/08/18 07:54:24;;;;;;;0.75;0.73;;;24.30;99.90;;;;;;5079294;28;20027;-78
2023/08/18 07:56:50;;;;;;;11.88;3.13;;;24.70;99.90;;;;;;5078437;28;20020;-78
2023/08/18 07:59:16;;;;;;;0.20;0.20;;;24.50;99.90;;;;;;5061148;28;20020;-79
2023/08/18 08:01:42;;;;;;;1.30;1.30;;;24.70;99.90;;;;;;5082303;28;20043;-80
2023/08/18 08:04:08;;;;;;;1.17;1.10;;;24.70;99.90;;;;;;5082256;28;20020;-77
2023/08/18 08:06:34;;;;;;;9.02;2.47;;;24.90;99.90;;;;;;5087602;28;20016;-77
2023/08/18 08:09:00;;;;;;;0.52;0.52;;;24.90;99.90;;;;;;5086225;28;20081;-78
2023/08/18 08:11:25;;;;;;;1.75;1.15;;;24.80;99.90;;;;;;5071115;28;20062;-77
2023/08/18 08:13:51;;;;;;;1.13;1.02;;;25.00;99.90;;;;;;5090591;28;20142;-84
2023/08/18 08:16:18;;;;;;;1.77;1.67;;;25.10;99.90;;;;;;5092356;28;20524;-81
2023/08/18 08:18:44;;;;;;;2.63;1.67;;;25.20;99.90;;;;;;5092995;28;20047;-80
2023/08/18 08:21:15;;;;;;;1.40;1.30;;;25.00;99.90;;;;;;5086376;28;20027;-77
2023/08/18 08:23:41;;;;;;;0.20;0.20;;;25.10;99.90;;;;;;5066593;28;20689;-92
2023/08/18 08:26:07;;;;;;;3.97;2.72;;;24.00;99.90;;;;;;5090647;28;20028;-78
2023/08/18 08:28:33;;;;;;;1.42;1.33;;;25.20;99.90;;;;;;5083210;28;20091;-80
2023/08/18 08:30:59;;;;;;;0.88;0.88;;;25.10;99.90;;;;;;5082554;28;20038;-81
2023/08/18 08:33:25;;;;;;;1.17;1.13;;;25.20;99.90;;;;;;5082017;28;20691;-78
2023/08/18 08:35:51;;;;;;;0.45;0.45;;;25.30;99.90;;;;;;5083284;28;20088;-81
2023/08/18 08:38:17;;;;;;;0.40;0.40;;;25.50;99.90;;;;;;5082405;28;20024;-82
2023/08/18 08:40:43;;;;;;;1.40;0.90;;;25.40;99.90;;;;;;5082650;28;20692;-78
2023/08/18 08:43:09;;;;;;;0.30;0.30;;;25.30;99.90;;;;;;5082078;28;20573;-79
2023/08/18 08:45:35;;;;;;;1.00;0.90;;;25.20;99.90;;;;;;5064021;28;20650;-87
2023/08/18 08:48:07;;;;;;;1.98;1.40;;;25.60;99.90;;;;;;5085157;28;20097;-80
2023/08/18 08:50:48;;;;;;;1.33;1.23;;;25.50;99.90;;;;;;5063444;28;20699;-79
2023/08/18 08:53:22;;;;;;;1.33;1.23;;;25.80;99.90;;;;;;5082425;28;20012;-77
2023/08/18 08:55:50;;;;;;;0.60;0.60;;;25.90;99.90;;;;;;5064681;28;20012;-91
2023/08/18 08:58:16;;;;;;;1.75;1.65;;;25.90;99.90;;;;;;5081897;28;20016;-80
2023/08/18 09:00:42;;;;;;;1.85;1.48;;;26.10;99.90;;;;;;5081505;28;20521;-77
2023/08/18 09:03:09;;;;;;;1.38;0.80;;;26.30;99.90;;;;;;5062349;28;20466;-78
2023/08/18 09:05:34;;;;;;;1.20;1.10;;;26.40;99.90;;;;;;5081486;28;20020;-85
2023/08/18 09:08:00;;;;;;;0.85;0.65;;;26.20;99.90;;;;;;5081964;28;20023;-78
2023/08/18 09:10:27;;;;;;;1.48;1.30;;;25.70;99.90;;;;;;5064262;28;20028;-81
2023/08/18 09:12:53;;;;;;;3.40;1.00;;;26.30;99.90;;;;;;5080098;28;20028;-77
2023/08/18 09:15:21;;;;;;;0.60;0.60;;;26.50;99.90;;;;;;5062203;28;20137;-87
2023/08/18 09:17:47;;;;;;;1.55;0.85;;;26.40;99.90;;;;;;5079866;28;20024;-81
2023/08/18 09:20:14;;;;;;;2.08;1.08;;;26.60;99.90;;;;;;5080278;28;20047;-82
2023/08/18 09:22:40;;;;;;;3.30;1.50;;;26.80;99.90;;;;;;5080833;28;20024;-77
2023/08/18 09:25:09;;;;;;;0.70;0.70;;;26.80;99.90;;;;;;5081500;28;20099;-79
2023/08/18 09:27:38;;;;;;;0.75;0.65;;;26.80;99.90;;;;;;5082283;28;20012;-78
2023/08/18 09:30:05;;;;;;;0.63;0.60;;;27.00;99.90;;;;;;5081859;28;20050;-78
2023/08/18 09:32:31;;;;;;;0.80;0.75;;;27.40;99.90;;;;;;5064294;28;20028;-80
2023/08/18 09:34:57;;;;;;;4.57;1.98;;;27.20;99.90;;;;;;5082780;28;20047;-79
2023/08/18 09:37:32;;;;;;;1.05;0.60;;;27.40;99.90;;;;;;5081372;28;20097;-78
2023/08/18 09:39:58;;;;;;;1.30;1.02;;;27.30;99.90;;;;;;5079929;28;20024;-76
2023/08/18 09:42:24;;;;;;;0.40;0.17;;;27.40;99.90;;;;;;5079932;28;20642;-80
2023/08/18 09:44:51;;;;;;;1.65;1.27;;;27.50;99.90;;;;;;5080140;28;20073;-76
2023/08/18 09:47:17;;;;;;;0.60;0.45;;;27.40;99.90;;;;;;5061980;28;20049;-84
2023/08/18 09:49:46;;;;;;;0.30;0.30;;;27.40;99.90;;;;;;5079861;28;20521;-76
2023/08/18 09:52:18;;;;;;;1.35;1.25;;;26.50;99.90;;;;;;5080661;28;20548;-76
2023/08/18 09:54:51;;;;;;;9.63;3.03;;;27.60;99.90;;;;;;5080198;28;20099;-80
2023/08/18 09:57:55;;;;;;;1.90;1.35;;;28.10;99.90;;;;;;5079555;28;20237;-80
2023/08/18 10:00:21;;;;;;;1.08;0.98;;;28.30;99.90;;;;;;5061787;28;20161;-81
2023/08/18 10:02:52;;;;;;;2.88;2.67;;;28.20;99.90;;;;;;5025347;28;1547764;-79
2023/08/18 10:05:19;;;;;;;2.00;1.63;;;28.60;99.90;;;;;;5080564;28;20028;-79
2023/08/18 10:07:46;;;;;;;0.57;0.57;;;28.60;99.90;;;;;;5081468;28;20277;-78
2023/08/18 10:10:14;;;;;;;1.17;1.08;;;29.10;99.90;;;;;;5063750;28;20538;-78
2023/08/18 10:12:52;;;;;;;1.88;1.77;;;28.60;99.90;;;;;;5088108;28;20032;-85
2023/08/18 10:15:19;;;;;;;3.08;0.88;;;29.30;99.90;;;;;;5084124;28;20024;-82
2023/08/18 10:17:45;;;;;;;0.30;0.30;;;28.50;99.90;;;;;;5080876;28;20028;-79
2023/08/18 10:20:11;;;;;;;2.80;2.33;;;29.20;99.90;;;;;;5081028;28;20009;-78
2023/08/18 10:22:55;;;;;;;1.67;1.02;;;28.70;99.90;;;;;;5080290;28;20035;-78
2023/08/18 10:25:28;;;;;;;3.60;1.90;;;28.60;99.90;;;;;;5062547;28;20028;-83
2023/08/18 10:27:54;;;;;;;0.82;0.82;;;28.70;99.90;;;;;;5080007;28;20024;-82
2023/08/18 10:30:27;;;;;;;1.90;1.10;;;28.70;99.90;;;;;;5080022;28;20031;-78
2023/08/18 10:33:00;;;;;;;1.27;1.17;;;29.10;99.90;;;;;;5080248;28;20028;-77
2023/08/18 10:35:30;;;;;;;0.57;0.50;;;28.30;99.90;;;;;;5062685;28;20024;-79
2023/08/18 10:38:00;;;;;;;1.15;1.05;;;29.20;99.90;;;;;;5080871;28;20118;-76
2023/08/18 10:40:30;;;;;;;1.80;1.15;;;28.20;99.90;;;;;;5061358;28;20027;-76
2023/08/18 10:43:16;;;;;;;1.25;1.08;;;29.30;99.90;;;;;;5079991;28;20026;-77
2023/08/18 10:45:42;;;;;;;0.93;0.85;;;29.40;99.90;;;;;;5079937;28;20024;-77
2023/08/18 10:48:09;;;;;;;0.82;0.82;;;29.30;99.90;;;;;;5061602;28;20095;-78
2023/08/18 10:50:38;;;;;;;1.65;1.55;;;29.30;99.90;;;;;;5061327;28;20064;-82
2023/08/18 10:53:04;;;;;;;1.60;1.00;;;29.60;99.90;;;;;;5080041;28;20016;-78
2023/08/18 10:55:31;;;;;;;1.77;1.58;;;29.40;99.90;;;;;;5079164;28;20673;-77
2023/08/18 10:57:57;;;;;;;1.85;1.27;;;29.60;99.90;;;;;;5079057;28;20027;-77
2023/08/18 11:00:23;;;;;;;0.82;0.38;;;29.80;99.90;;;;;;5079640;28;20661;-78
2023/08/18 11:02:50;;;;;;;0.88;0.40;;;29.80;99.90;;;;;;5078760;28;20051;-77
2023/08/18 11:05:22;;;;;;;7.90;1.92;;;30.10;99.90;;;;;;5080948;28;20031;-86
2023/08/18 11:07:49;;;;;;;0.55;0.43;;;32.40;99.90;;;;;;5079772;28;20103;-91
2023/08/18 11:10:23;;;;;;;0.43;0.43;;;30.30;99.90;;;;;;5079299;28;20024;-81
2023/08/18 11:12:51;;;;;;;2.05;1.65;;;30.70;99.90;;;;;;5080471;28;20089;-78
2023/08/18 11:15:22;;;;;;;0.75;0.75;;;30.20;99.90;;;;;;5080974;28;20028;-82
2023/08/18 11:17:49;;;;;;;2.00;1.83;;;30.80;99.90;;;;;;5081937;28;20028;-79
2023/08/18 11:20:16;;;;;;;1.58;1.40;;;31.20;99.90;;;;;;5082784;28;20024;-81
2023/08/18 11:22:45;;;;;;;4.05;1.90;;;31.40;99.90;;;;;;5062504;28;20059;-77
2023/08/18 11:25:11;;;;;;;1.63;1.50;;;31.40;99.30;;;;;;5079838;28;20027;-77
2023/08/18 11:27:41;;;;;;;0.55;0.43;;;31.40;99.20;;;;;;5081918;28;20035;-77
2023/08/18 11:30:10;;;;;;;1.08;0.98;;;31.60;99.00;;;;;;5061922;28;20107;-77
2023/08/18 11:32:37;;;;;;;0.98;0.65;;;31.50;98.70;;;;;;5078548;28;20012;-77
2023/08/18 11:35:05;;;;;;;2.70;1.95;;;31.50;98.50;;;;;;5079013;28;20103;-78
2023/08/18 11:37:31;;;;;;;2.38;1.83;;;31.10;98.80;;;;;;5078342;28;20048;-81
2023/08/18 11:39:57;;;;;;;2.60;2.40;;;31.70;98.80;;;;;;5060221;28;20139;-77
2023/08/18 11:42:26;;;;;;;0.40;0.40;;;32.00;97.60;;;;;;5064729;28;20142;-78
2023/08/18 11:44:54;;;;;;;1.67;1.52;;;32.10;97.50;;;;;;5082149;28;20017;-81
2023/08/18 11:47:21;;;;;;;1.98;1.60;;;32.60;97.20;;;;;;5048123;28;20040;-86
2023/08/18 11:49:47;;;;;;;1.08;0.73;;;32.60;96.50;;;;;;5079049;28;20504;-81
2023/08/18 11:52:14;;;;;;;3.80;1.83;;;32.80;96.60;;;;;;5060704;28;20036;-82
2023/08/18 11:54:42;;;;;;;1.27;1.17;;;32.80;96.40;;;;;;5078658;28;20051;-78
2023/08/18 11:57:12;;;;;;;2.72;1.75;;;32.90;96.30;;;;;;5078459;28;20085;-83
2023/08/18 11:59:44;;;;;;;0.82;0.82;;;32.70;95.70;;;;;;5078538;28;20023;-84
2023/08/18 12:02:10;;;;;;;0.45;0.45;;;32.60;95.90;;;;;;5078474;28;20101;-76
2023/08/18 12:04:42;;;;;;;6.88;1.88;;;32.60;95.90;;;;;;5060600;28;20032;-77
2023/08/18 12:07:08;;;;;;;3.75;2.50;;;32.60;95.60;;;;;;5078490;28;20020;-82
2023/08/18 12:09:34;;;;;;;2.03;1.75;;;32.50;95.90;;;;;;5081212;28;20092;-83
2023/08/18 12:11:59;;;;;;;1.55;1.05;;;33.00;95.20;;;;;;5095116;28;20040;-77
2023/08/18 12:14:25;;;;;;;1.42;1.27;;;33.10;94.30;;;;;;5085119;28;20024;-81
2023/08/18 12:16:51;;;;;;;1.35;1.25;;;33.80;94.50;;;;;;5078049;28;20020;-82
2023/08/18 12:19:20;;;;;;;2.10;1.25;;;34.10;93.40;;;;;;5078610;28;20696;-80
2023/08/18 12:21:46;;;;;;;1.90;1.20;;;34.00;95.00;;;;;;5061368;28;20216;-81
2023/08/18 12:24:12;;;;;;;3.97;2.78;;;34.50;93.70;;;;;;5078534;28;20542;-78
2023/08/18 12:26:38;;;;;;;3.08;1.90;;;34.70;92.90;;;;;;5080478;28;20626;-78
2023/08/18 12:29:04;;;;;;;1.77;1.15;;;33.60;91.60;;;;;;5079634;28;20081;-80
2023/08/18 12:31:36;;;;;;;2.25;1.00;;;35.20;90.80;;;;;;5080023;28;20152;-76
2023/08/18 12:34:05;;;;;;;2.58;1.85;;;35.10;91.10;;;;;;5079293;28;20066;-83
2023/08/18 12:36:33;;;;;;;2.22;1.85;;;35.50;91.30;;;;;;5060457;28;20028;-79
2023/08/18 12:38:59;;;;;;;2.13;1.73;;;36.40;90.30;;;;;;5078948;28;20022;-78
2023/08/18 12:41:27;;;;;;;2.05;1.40;;;35.80;90.10;;;;;;5078320;28;20854;-81
2023/08/18 12:43:53;;;;;;;2.55;1.63;;;35.80;89.80;;;;;;5078746;28;20048;-78
2023/08/18 12:46:19;;;;;;;2.60;0.82;;;33.20;86.70;;;;;;5079017;28;20581;-80
2023/08/18 12:48:45;;;;;;;2.17;1.98;;;36.40;88.60;;;;;;5065777;28;20051;-80
2023/08/18 12:51:11;;;;;;;3.35;2.10;;;36.30;88.50;;;;;;5081059;28;20661;-88